Terminal Aerodrome Forecast
Issued by NWS

Home | Current Version | Previous Version | Text Only | Print | Product List | Glossary On
Versions: 1 2 3 4 5 6 7 8 9 10 11 12 13 14 15 16 17 18 19 20 21 22
000
FTUS43 KTOP 181100
TAFMHK
TAF
KMHK 181131Z 1812/1912 05005KT 3SM -SN BR FEW007 OVC015
     FM181300 07003KT 4SM BR OVC009
     FM182200 05002KT 6SM BR OVC015
     FM190300 00000KT 4SM BR OVC009=

USA.gov is the U.S. government's official web portal to all federal, state and local government web resources and services.